createdAt,value
2023-04-19T00:01:09.392Z,51.30
2023-04-19T00:03:36.277Z,51.30
2023-04-19T00:06:03.588Z,51.30
2023-04-19T00:08:30.314Z,51.30
2023-04-19T00:10:56.954Z,51.30
2023-04-19T00:13:23.642Z,51.20
2023-04-19T00:15:50.322Z,51.20
2023-04-19T00:18:16.971Z,51.30
2023-04-19T00:20:43.670Z,51.20
2023-04-19T00:23:10.400Z,51.30
2023-04-19T00:25:37.118Z,51.20
2023-04-19T00:28:04.144Z,51.20
2023-04-19T00:30:30.913Z,51.30
2023-04-19T00:32:57.795Z,51.30
2023-04-19T00:35:24.557Z,51.30
2023-04-19T00:37:51.279Z,51.20
2023-04-19T00:40:17.946Z,51.20
2023-04-19T00:42:44.614Z,51.20
2023-04-19T00:45:11.472Z,51.20
2023-04-19T00:47:38.359Z,51.20
2023-04-19T00:50:05.995Z,51.10
2023-04-19T00:52:32.942Z,51.20
2023-04-19T00:54:59.873Z,51.10
2023-04-19T00:57:26.600Z,51.10
2023-04-19T00:59:53.339Z,51.20
2023-04-19T01:02:21.268Z,51.10
2023-04-19T01:04:47.979Z,51.10
2023-04-19T01:07:14.656Z,51.10
2023-04-19T01:09:42.033Z,51.10
2023-04-19T01:12:08.765Z,51.20
2023-04-19T01:14:35.483Z,51.10
2023-04-19T01:17:02.123Z,51.10
2023-04-19T01:19:28.860Z,51.20
2023-04-19T01:21:56.450Z,51.20
2023-04-19T01:24:23.256Z,51.20
2023-04-19T01:26:49.959Z,51.10
2023-04-19T01:29:18.627Z,51.10
2023-04-19T01:31:49.322Z,51.10
2023-04-19T01:34:16.328Z,51.10
2023-04-19T01:36:43.205Z,51.20
2023-04-19T01:39:10.976Z,51.10
2023-04-19T01:41:37.849Z,51.10
2023-04-19T01:44:04.713Z,51.10
2023-04-19T01:46:31.420Z,51.10
2023-04-19T01:48:58.104Z,51.10
2023-04-19T01:51:24.761Z,51.10
2023-04-19T01:53:53.816Z,51.10
2023-04-19T01:56:21.008Z,51.10
2023-04-19T01:58:47.787Z,51.10
2023-04-19T02:01:14.537Z,51.10
2023-04-19T02:03:41.396Z,51.00
2023-04-19T02:06:12.452Z,51.10
2023-04-19T02:08:42.216Z,51.10
2023-04-19T02:11:09.384Z,51.10
2023-04-19T02:13:36.277Z,51.70
2023-04-19T02:16:03.221Z,51.10
2023-04-19T02:18:29.985Z,51.10
2023-04-19T02:20:56.708Z,51.10
2023-04-19T02:23:23.390Z,51.20
2023-04-19T02:25:50.611Z,51.10
2023-04-19T02:28:17.353Z,51.10
2023-04-19T02:30:44.040Z,51.10
2023-04-19T02:33:10.710Z,51.10
2023-04-19T02:35:37.452Z,51.10
2023-04-19T02:38:04.516Z,51.00
2023-04-19T02:40:31.193Z,51.10
2023-04-19T02:42:57.917Z,51.10
2023-04-19T02:45:27.579Z,51.00
2023-04-19T02:47:54.299Z,51.10
2023-04-19T02:50:21.080Z,51.00
2023-04-19T02:52:47.828Z,51.10
2023-04-19T02:55:14.561Z,51.00
2023-04-19T02:57:41.313Z,51.00
2023-04-19T03:00:09.073Z,51.00
2023-04-19T03:02:36.144Z,51.00
2023-04-19T03:05:02.929Z,51.00
2023-04-19T03:07:29.849Z,51.60
2023-04-19T03:09:56.532Z,50.90
2023-04-19T03:12:23.260Z,50.90
2023-04-19T03:14:50.007Z,51.00
2023-04-19T03:17:16.911Z,50.90
2023-04-19T03:19:43.769Z,50.90
2023-04-19T03:22:10.434Z,50.90
2023-04-19T03:24:38.136Z,50.90
2023-04-19T03:27:04.979Z,51.00
2023-04-19T03:29:31.662Z,50.90
2023-04-19T03:31:58.346Z,51.00
2023-04-19T03:34:25.039Z,51.00
2023-04-19T03:36:51.668Z,51.00
2023-04-19T03:39:18.420Z,51.00
2023-04-19T03:41:45.168Z,51.00
2023-04-19T03:44:11.883Z,51.00
2023-04-19T03:46:38.724Z,51.00
2023-04-19T03:49:06.236Z,51.00
2023-04-19T03:51:32.876Z,50.90
2023-04-19T03:54:00.329Z,50.90
2023-04-19T03:56:26.982Z,50.90
2023-04-19T03:58:53.630Z,50.90
2023-04-19T04:01:20.677Z,51.00
2023-04-19T04:03:47.532Z,50.90
2023-04-19T04:06:14.302Z,51.50
2023-04-19T04:08:40.843Z,51.00
2023-04-19T04:11:07.390Z,51.00
2023-04-19T04:13:33.946Z,50.90
2023-04-19T04:16:00.671Z,51.00
2023-04-19T04:18:28.541Z,51.10
2023-04-19T04:20:55.575Z,51.10
2023-04-19T04:23:22.722Z,51.10
2023-04-19T04:25:56.114Z,50.90
2023-04-19T04:28:23.415Z,51.00
2023-04-19T04:30:51.866Z,51.00
2023-04-19T04:33:18.581Z,51.40
2023-04-19T04:35:45.145Z,50.90
2023-04-19T04:38:23.609Z,50.90
2023-04-19T04:40:54.369Z,50.90
2023-04-19T04:43:21.820Z,50.90
2023-04-19T04:45:48.399Z,51.00
2023-04-19T04:48:15.015Z,50.90
2023-04-19T04:50:41.794Z,51.00
2023-04-19T04:53:08.430Z,51.00
2023-04-19T04:55:35.075Z,51.00
2023-04-19T04:58:01.699Z,51.10
2023-04-19T05:00:28.265Z,51.00
2023-04-19T05:02:54.929Z,51.10
2023-04-19T05:05:21.651Z,51.00
2023-04-19T05:07:48.219Z,51.20
2023-04-19T05:10:14.787Z,51.10
2023-04-19T05:12:41.364Z,51.40
2023-04-19T05:15:08.121Z,51.70
2023-04-19T05:17:34.723Z,51.10
2023-04-19T05:20:01.339Z,51.30
2023-04-19T05:22:27.895Z,51.30
2023-04-19T05:24:55.161Z,51.50
2023-04-19T05:27:21.749Z,51.40
2023-04-19T05:29:48.347Z,51.40
2023-04-19T05:32:14.927Z,51.30
2023-04-19T05:34:41.518Z,51.30
2023-04-19T05:37:08.067Z,51.30
2023-04-19T05:39:34.679Z,51.30
2023-04-19T05:42:01.791Z,51.20
2023-04-19T05:44:28.400Z,51.20
2023-04-19T05:46:54.996Z,51.20
2023-04-19T05:49:21.554Z,51.10
2023-04-19T05:51:48.118Z,51.10
2023-04-19T05:54:15.032Z,51.10
2023-04-19T05:56:41.873Z,51.10
2023-04-19T05:59:08.575Z,51.10
2023-04-19T06:01:35.475Z,51.10
2023-04-19T06:04:02.388Z,51.10
2023-04-19T06:06:29.356Z,51.10
2023-04-19T06:08:56.078Z,51.10
2023-04-19T06:11:31.550Z,51.10
2023-04-19T06:14:05.952Z,51.20
2023-04-19T06:16:32.590Z,51.10
2023-04-19T06:18:59.195Z,51.10
2023-04-19T06:21:25.768Z,51.20
2023-04-19T06:23:52.526Z,51.10
2023-04-19T06:26:19.155Z,51.10
2023-04-19T06:28:45.774Z,51.10
2023-04-19T06:31:12.426Z,51.10
2023-04-19T06:33:39.016Z,51.10
2023-04-19T06:36:05.949Z,51.10
2023-04-19T06:38:32.500Z,51.10
2023-04-19T06:40:59.082Z,51.10
2023-04-19T06:43:25.755Z,51.10
2023-04-19T06:45:59.049Z,51.70
2023-04-19T06:48:26.200Z,51.10
2023-04-19T06:50:52.751Z,51.00
2023-04-19T06:53:19.306Z,51.00
2023-04-19T06:55:46.274Z,51.00
2023-04-19T06:58:12.872Z,51.00
2023-04-19T07:00:39.431Z,50.90
2023-04-19T07:03:06.233Z,51.00
2023-04-19T07:05:32.881Z,51.00
2023-04-19T07:07:59.448Z,51.00
2023-04-19T07:10:26.093Z,50.80
2023-04-19T07:12:52.657Z,50.80
2023-04-19T07:15:19.259Z,50.90
2023-04-19T07:17:46.915Z,51.00
2023-04-19T07:20:13.526Z,50.90
2023-04-19T07:22:40.237Z,50.90
2023-04-19T07:25:07.067Z,50.80
2023-04-19T07:27:33.617Z,50.90
2023-04-19T07:30:00.196Z,50.80
2023-04-19T07:32:26.815Z,50.80
2023-04-19T07:34:53.994Z,50.80
2023-04-19T07:37:20.539Z,50.70
2023-04-19T07:39:47.085Z,50.70
2023-04-19T07:42:13.655Z,50.70
2023-04-19T07:44:40.263Z,50.60
2023-04-19T07:47:06.861Z,50.60
2023-04-19T07:49:34.446Z,50.60
2023-04-19T07:52:04.157Z,50.60
2023-04-19T07:54:31.359Z,50.60
2023-04-19T07:56:59.050Z,50.40
2023-04-19T07:59:25.729Z,50.50
2023-04-19T08:01:52.361Z,50.50
2023-04-19T08:04:20.613Z,50.50
2023-04-19T08:06:47.673Z,50.60
2023-04-19T08:09:14.538Z,51.10
2023-04-19T08:11:41.196Z,50.50
2023-04-19T08:14:18.583Z,50.40
2023-04-19T08:19:23.293Z,50.60
2023-04-19T08:21:49.883Z,50.60
2023-04-19T08:24:16.694Z,50.50
2023-04-19T08:26:43.488Z,50.50
2023-04-19T08:29:10.105Z,50.50
2023-04-19T08:31:36.791Z,50.40
2023-04-19T08:34:03.957Z,50.60
2023-04-19T08:36:39.116Z,50.40
2023-04-19T08:39:24.901Z,50.40
2023-04-19T08:42:07.006Z,50.50
2023-04-19T08:44:49.268Z,50.40
2023-04-19T08:47:30.834Z,50.40
2023-04-19T08:50:14.071Z,50.40
2023-04-19T08:52:54.780Z,50.40
2023-04-19T08:55:23.846Z,50.40
2023-04-19T08:57:50.594Z,50.40
2023-04-19T09:00:17.414Z,50.30
2023-04-19T09:02:48.295Z,50.40
2023-04-19T09:05:15.929Z,50.40
2023-04-19T09:07:42.583Z,50.40
2023-04-19T09:10:14.002Z,51.00
2023-04-19T09:12:40.674Z,50.50
2023-04-19T09:15:10.454Z,50.40
2023-04-19T09:17:37.336Z,50.40
2023-04-19T09:20:04.681Z,51.00
2023-04-19T09:22:31.650Z,50.30
2023-04-19T09:27:28.879Z,50.30
2023-04-19T09:29:56.250Z,50.40
2023-04-19T09:32:23.138Z,50.30
2023-04-19T09:34:59.400Z,50.30
2023-04-19T09:39:56.095Z,50.20
2023-04-19T09:42:36.346Z,50.20
2023-04-19T09:47:38.881Z,50.20
2023-04-19T09:50:21.229Z,50.20
2023-04-19T09:52:49.932Z,50.20
2023-04-19T09:55:26.780Z,50.30
2023-04-19T09:57:55.000Z,50.20
2023-04-19T10:00:22.613Z,50.20
2023-04-19T10:02:55.681Z,50.20
2023-04-19T10:05:23.100Z,50.20
2023-04-19T10:07:50.000Z,50.10
2023-04-19T10:10:20.731Z,50.10
2023-04-19T10:13:11.478Z,50.10
2023-04-19T10:15:50.670Z,50.10
2023-04-19T10:18:18.903Z,50.10
2023-04-19T10:20:59.966Z,50.10
2023-04-19T10:23:26.739Z,50.10
2023-04-19T10:25:57.514Z,50.20
2023-04-19T10:28:24.120Z,50.10
2023-04-19T10:31:03.556Z,50.10
2023-04-19T10:33:36.831Z,50.00
2023-04-19T10:36:03.541Z,50.10
2023-04-19T10:38:37.137Z,50.00
2023-04-19T10:41:13.795Z,50.10
2023-04-19T10:43:47.415Z,50.00
2023-04-19T10:46:25.587Z,50.00
2023-04-19T10:48:58.920Z,50.10
2023-04-19T10:51:38.822Z,50.00
2023-04-19T10:54:09.263Z,50.00
2023-04-19T10:56:35.897Z,50.00
2023-04-19T10:59:02.836Z,50.00
2023-04-19T11:01:33.483Z,49.90
2023-04-19T11:04:00.346Z,50.30
2023-04-19T11:06:28.102Z,50.00
2023-04-19T11:08:54.684Z,49.90
2023-04-19T11:11:21.678Z,49.90
2023-04-19T11:13:48.621Z,49.90
2023-04-19T11:16:16.659Z,50.00
2023-04-19T11:18:44.946Z,50.00
2023-04-19T11:21:14.958Z,49.90
2023-04-19T11:23:41.776Z,49.80
2023-04-19T11:26:14.468Z,49.90
2023-04-19T11:28:41.297Z,49.90
2023-04-19T11:31:08.008Z,49.80
2023-04-19T11:33:34.889Z,50.00
2023-04-19T11:36:01.548Z,50.30
2023-04-19T11:38:28.679Z,49.70
2023-04-19T11:41:01.863Z,49.10
2023-04-19T11:43:34.643Z,49.20
2023-04-19T11:46:04.714Z,49.00
2023-04-19T11:48:31.285Z,48.70
2023-04-19T11:50:58.064Z,48.40
2023-04-19T11:53:25.497Z,48.50
2023-04-19T11:55:52.724Z,48.70
2023-04-19T11:58:26.801Z,48.70
2023-04-19T12:00:53.564Z,48.60
2023-04-19T12:03:25.805Z,48.90
2023-04-19T12:05:56.961Z,48.90
2023-04-19T12:08:31.859Z,49.20
2023-04-19T12:10:58.652Z,49.10
2023-04-19T12:13:25.512Z,49.10
2023-04-19T12:15:52.226Z,49.10
2023-04-19T12:18:18.805Z,49.00
2023-04-19T12:20:46.569Z,49.00
2023-04-19T12:23:16.158Z,49.00
2023-04-19T12:25:43.224Z,49.10
2023-04-19T12:28:09.817Z,49.30
2023-04-19T12:30:36.830Z,49.20
2023-04-19T12:33:03.659Z,49.90
2023-04-19T12:35:30.466Z,49.30
2023-04-19T12:37:57.560Z,49.40
2023-04-19T12:40:24.232Z,49.40
2023-04-19T12:42:50.800Z,49.40
2023-04-19T12:45:17.523Z,49.40
2023-04-19T12:47:44.352Z,49.40
2023-04-19T12:50:11.041Z,49.50
2023-04-19T12:52:37.651Z,49.50
2023-04-19T12:55:04.344Z,49.40
2023-04-19T12:57:31.016Z,49.50
2023-04-19T12:59:57.590Z,49.50
2023-04-19T13:02:24.296Z,49.40
2023-04-19T13:04:51.478Z,49.40
2023-04-19T13:07:18.229Z,49.60
2023-04-19T13:09:44.803Z,49.40
2023-04-19T13:12:12.214Z,49.60
2023-04-19T13:14:38.928Z,49.40
2023-04-19T13:17:05.596Z,49.40
2023-04-19T13:19:32.181Z,49.50
2023-04-19T13:21:58.751Z,49.40
2023-04-19T13:24:25.351Z,49.30
2023-04-19T13:26:52.187Z,49.20
2023-04-19T13:29:18.876Z,49.40
2023-04-19T13:31:47.011Z,49.30
2023-04-19T13:34:13.814Z,49.40
2023-04-19T13:36:41.110Z,49.30
2023-04-19T13:39:08.520Z,49.40
2023-04-19T13:41:35.675Z,49.40
2023-04-19T13:44:02.297Z,49.50
2023-04-19T13:46:29.074Z,49.40
2023-04-19T13:48:55.663Z,49.40
2023-04-19T13:51:22.464Z,49.40
2023-04-19T13:53:49.062Z,49.40
2023-04-19T13:56:15.705Z,49.50
2023-04-19T13:58:42.263Z,49.40
2023-04-19T14:01:08.958Z,49.40
2023-04-19T14:03:35.764Z,49.40
2023-04-19T14:06:02.474Z,49.40
2023-04-19T14:08:29.036Z,49.40
2023-04-19T14:10:55.727Z,49.40
2023-04-19T14:13:22.561Z,49.40
2023-04-19T14:15:49.198Z,49.30
2023-04-19T14:18:16.045Z,49.40
2023-04-19T14:20:42.625Z,49.40
2023-04-19T14:23:09.182Z,49.60
2023-04-19T14:25:36.808Z,49.40
2023-04-19T14:28:03.464Z,49.40
2023-04-19T14:30:31.141Z,49.10
2023-04-19T14:32:58.123Z,49.30
2023-04-19T14:35:25.044Z,49.30
2023-04-19T14:37:51.664Z,49.40
2023-04-19T14:40:19.924Z,49.40
2023-04-19T14:42:46.515Z,49.50
2023-04-19T14:45:13.164Z,49.50
2023-04-19T14:47:39.867Z,49.40
2023-04-19T14:50:06.637Z,49.40
2023-04-19T14:52:33.452Z,49.40
2023-04-19T14:55:00.351Z,49.40
2023-04-19T14:57:27.221Z,49.30
2023-04-19T15:00:01.229Z,49.40
2023-04-19T15:02:28.089Z,49.40
2023-04-19T15:04:55.017Z,49.00
2023-04-19T15:07:22.028Z,49.20
2023-04-19T15:09:48.657Z,48.60
2023-04-19T15:12:15.546Z,48.70
2023-04-19T15:14:42.239Z,48.70
2023-04-19T15:17:08.826Z,48.40
2023-04-19T15:19:35.416Z,48.40
2023-04-19T15:22:03.978Z,48.30
2023-04-19T15:24:30.724Z,48.40
2023-04-19T15:26:58.748Z,48.70
2023-04-19T15:29:25.383Z,48.70
2023-04-19T15:31:52.086Z,48.70
2023-04-19T15:34:18.757Z,48.90
2023-04-19T15:36:45.353Z,48.90
2023-04-19T15:39:11.940Z,49.20
2023-04-19T15:41:38.574Z,49.20
2023-04-19T15:44:05.212Z,49.10
2023-04-19T15:46:31.874Z,49.10
2023-04-19T15:48:58.767Z,49.30
2023-04-19T15:51:25.545Z,49.40
2023-04-19T15:53:52.267Z,49.20
2023-04-19T15:56:18.892Z,49.60
2023-04-19T15:58:45.724Z,49.50
2023-04-19T16:01:13.054Z,49.70
2023-04-19T16:03:39.966Z,49.90
2023-04-19T16:06:06.778Z,49.70
2023-04-19T16:08:33.342Z,49.50
2023-04-19T16:11:00.006Z,49.60
2023-04-19T16:13:26.621Z,49.90
2023-04-19T16:15:53.280Z,50.10
2023-04-19T16:18:19.932Z,49.70
2023-04-19T16:20:46.730Z,49.80
2023-04-19T16:23:14.624Z,50.30
2023-04-19T16:25:41.428Z,49.90
2023-04-19T16:28:08.043Z,49.90
2023-04-19T16:30:34.718Z,49.90
2023-04-19T16:33:01.383Z,49.90
2023-04-19T16:35:28.016Z,49.90
2023-04-19T16:37:57.603Z,49.80
2023-04-19T16:40:27.945Z,50.00
2023-04-19T16:42:54.613Z,49.90
2023-04-19T16:45:21.376Z,50.00
2023-04-19T16:47:48.255Z,49.90
2023-04-19T16:50:14.996Z,49.80
2023-04-19T16:52:42.818Z,49.90
2023-04-19T16:55:09.631Z,50.00
2023-04-19T16:57:36.733Z,50.00
2023-04-19T17:00:05.636Z,49.90
2023-04-19T17:02:32.651Z,49.90
2023-04-19T17:04:59.470Z,49.90
2023-04-19T17:07:26.325Z,50.00
2023-04-19T17:09:54.166Z,50.00
2023-04-19T17:12:20.854Z,49.90
2023-04-19T17:14:47.404Z,49.80
2023-04-19T17:17:20.359Z,49.80
2023-04-19T17:19:47.031Z,50.60
2023-04-19T17:22:14.359Z,50.00
2023-04-19T17:24:40.960Z,50.30
2023-04-19T17:27:07.549Z,50.00
2023-04-19T17:29:34.168Z,50.20
2023-04-19T17:32:01.031Z,50.10
2023-04-19T17:34:27.640Z,50.10
2023-04-19T17:36:54.246Z,50.60
2023-04-19T17:39:20.851Z,50.10
2023-04-19T17:41:47.428Z,50.10
2023-04-19T17:44:14.058Z,50.00
2023-04-19T17:46:40.701Z,50.00
2023-04-19T17:49:07.793Z,50.60
2023-04-19T17:51:34.385Z,50.20
2023-04-19T17:54:00.992Z,50.00
2023-04-19T17:56:28.458Z,50.10
2023-04-19T17:58:55.096Z,50.00
2023-04-19T18:01:21.767Z,50.00
2023-04-19T18:03:48.551Z,50.20
2023-04-19T18:06:16.393Z,50.10
2023-04-19T18:08:46.140Z,50.20
2023-04-19T18:11:12.757Z,50.20
2023-04-19T18:13:39.353Z,50.00
2023-04-19T18:16:06.050Z,49.50
2023-04-19T18:18:32.664Z,49.40
2023-04-19T18:20:59.872Z,49.40
2023-04-19T18:23:26.777Z,48.80
2023-04-19T18:25:54.240Z,48.90
2023-04-19T18:28:21.221Z,49.00
2023-04-19T18:30:47.846Z,49.70
2023-04-19T18:33:14.450Z,49.40
2023-04-19T18:35:41.061Z,49.30
2023-04-19T18:38:08.617Z,49.40
2023-04-19T18:40:35.242Z,49.30
2023-04-19T18:43:01.822Z,50.40
2023-04-19T18:45:28.981Z,49.80
2023-04-19T18:47:55.747Z,49.90
2023-04-19T18:50:22.370Z,50.00
2023-04-19T18:52:48.974Z,50.00
2023-04-19T18:55:16.089Z,50.00
2023-04-19T18:57:42.812Z,50.00
2023-04-19T19:00:11.282Z,50.00
2023-04-19T19:02:40.391Z,50.00
2023-04-19T19:05:08.392Z,50.00
2023-04-19T19:07:37.093Z,50.10
2023-04-19T19:10:16.819Z,50.10
2023-04-19T19:12:45.620Z,50.20
2023-04-19T19:15:12.798Z,50.20
2023-04-19T19:17:39.482Z,50.20
2023-04-19T19:20:06.827Z,50.10
2023-04-19T19:22:34.119Z,50.20
2023-04-19T19:25:00.949Z,51.00
2023-04-19T19:27:27.611Z,50.30
2023-04-19T19:29:54.210Z,50.20
2023-04-19T19:32:20.836Z,50.20
2023-04-19T19:37:17.668Z,50.70
2023-04-19T19:39:44.892Z,50.10
2023-04-19T19:42:14.759Z,50.30
2023-04-19T19:44:41.378Z,50.40
2023-04-19T19:47:10.197Z,50.30
2023-04-19T19:49:51.984Z,50.30
2023-04-19T19:52:24.687Z,50.30
2023-04-19T19:54:51.927Z,50.30
2023-04-19T19:58:10.319Z,50.50
2023-04-19T20:00:31.957Z,50.20
2023-04-19T20:02:56.674Z,50.30
2023-04-19T20:05:24.074Z,50.20
2023-04-19T20:10:20.562Z,50.10
2023-04-19T20:12:47.172Z,50.10
2023-04-19T20:15:13.862Z,50.00
2023-04-19T20:17:40.710Z,50.00
2023-04-19T20:20:08.946Z,50.10
2023-04-19T20:22:35.725Z,50.10
2023-04-19T20:25:02.394Z,50.00
2023-04-19T20:27:29.025Z,49.90
2023-04-19T20:29:56.295Z,49.90
2023-04-19T20:32:23.022Z,50.00
2023-04-19T20:34:49.716Z,50.10
2023-04-19T20:37:17.465Z,50.10
2023-04-19T20:39:44.084Z,49.90
2023-04-19T20:42:10.635Z,49.90
2023-04-19T20:44:37.405Z,50.20
2023-04-19T20:47:03.975Z,49.90
2023-04-19T20:49:30.622Z,49.90
2023-04-19T20:51:57.175Z,50.70
2023-04-19T20:54:23.769Z,49.80
2023-04-19T20:56:52.185Z,49.80
2023-04-19T20:59:18.968Z,49.80
2023-04-19T21:01:45.973Z,49.90
2023-04-19T21:04:12.703Z,50.10
2023-04-19T21:06:39.416Z,49.80
2023-04-19T21:09:05.968Z,49.70
2023-04-19T21:11:32.521Z,49.70
2023-04-19T21:13:59.129Z,49.70
2023-04-19T21:16:25.731Z,49.70
2023-04-19T21:18:52.384Z,49.80
2023-04-19T21:21:18.934Z,50.20
2023-04-19T21:23:45.498Z,49.60
2023-04-19T21:26:12.046Z,49.70
2023-04-19T21:28:38.638Z,50.10
2023-04-19T21:31:05.276Z,49.80
2023-04-19T21:33:31.950Z,49.70
2023-04-19T21:35:58.582Z,49.80
2023-04-19T21:38:25.191Z,49.70
2023-04-19T21:40:52.035Z,50.30
2023-04-19T21:43:18.681Z,49.80
2023-04-19T21:45:45.256Z,50.00
2023-04-19T21:48:11.989Z,49.90
2023-04-19T21:50:38.559Z,49.70
2023-04-19T21:53:05.179Z,50.00
2023-04-19T21:55:32.785Z,49.60
2023-04-19T21:57:59.542Z,50.00
2023-04-19T22:00:26.333Z,49.70
2023-04-19T22:02:53.049Z,49.70
2023-04-19T22:05:19.762Z,50.10
2023-04-19T22:07:47.403Z,49.70
2023-04-19T22:10:13.992Z,49.70
2023-04-19T22:12:51.238Z,49.50
2023-04-19T22:15:22.168Z,49.60
2023-04-19T22:17:48.849Z,50.00
2023-04-19T22:20:15.999Z,49.50
2023-04-19T22:22:42.556Z,49.70
2023-04-19T22:25:09.242Z,49.70
2023-04-19T22:27:35.819Z,49.60
2023-04-19T22:30:02.701Z,49.70
2023-04-19T22:32:29.292Z,49.80
2023-04-19T22:34:55.884Z,49.80
2023-04-19T22:37:22.478Z,49.90
2023-04-19T22:39:49.055Z,49.80
2023-04-19T22:42:15.617Z,49.70
2023-04-19T22:44:42.225Z,49.50
2023-04-19T22:47:08.784Z,49.50
2023-04-19T22:49:35.397Z,49.50
2023-04-19T22:52:02.054Z,49.60
2023-04-19T22:54:28.609Z,49.70
2023-04-19T22:56:55.244Z,49.50
2023-04-19T22:59:21.861Z,49.40
2023-04-19T23:01:48.496Z,49.70
2023-04-19T23:04:15.609Z,49.60
2023-04-19T23:06:42.540Z,49.50
2023-04-19T23:09:10.994Z,49.50
2023-04-19T23:11:37.655Z,50.00
2023-04-19T23:14:04.503Z,49.60
2023-04-19T23:16:33.326Z,49.70
2023-04-19T23:19:00.645Z,49.80
2023-04-19T23:21:29.859Z,49.60
2023-04-19T23:23:56.463Z,49.50
2023-04-19T23:26:23.091Z,50.00
2023-04-19T23:28:49.674Z,49.50
2023-04-19T23:31:16.264Z,49.80
2023-04-19T23:33:42.907Z,49.30
2023-04-19T23:36:09.509Z,49.40
2023-04-19T23:38:36.065Z,49.40
2023-04-19T23:41:02.759Z,49.40
2023-04-19T23:43:29.310Z,49.70
2023-04-19T23:45:56.149Z,49.80
2023-04-19T23:48:22.712Z,49.80
2023-04-19T23:50:49.302Z,49.50
2023-04-19T23:53:16.039Z,49.50
2023-04-19T23:55:42.652Z,49.50
2023-04-19T23:58:09.196Z,49.60
